テヘラン の空港の天気 - METARとTAF

メヘラーバード国際空港(テヘラン) ( OIII / THR ) - イラン テヘラン
飛行場実況気象(Metar)
観測時間01/17 10:00 IRST (01/17 06:30 UTC)
風向・風速西南西 2m/s
視程4000m
天気現象煙霧
なし
気温6℃
湿度52%
気圧1023hPa
METAROIII 170630Z 24004KT 4000 HZ NSC 06/M03 Q1023 A3022 NOSIG
過去の天気等 Google飛行場航空写真 Wunderground天気予報

過去48時間のMETAR

飛行場予報(TAF)
発表時間: 1/17 08:40 IRST (1/17 05:10 UTC)
予報対象時間: 17日9時 IRST ~ 18日15時 IRST
風向・風速南西 3m/s
視程4,000m
天気現象煙霧
少しの雲 雲底高度 1,070m
全天の4割程度の雲 雲底高度 3,050m
17日3時 IRST ~ 17日11時 IRST に一時的に
視程2,000m
天気現象煙霧
TAF OIII 170510Z 1706/1812 23003MPS 4000 HZ FEW035 SCT100
TEMPO 1624/1708 2000 HZ